Time;durP1;ratioP1;P1;durP2;ratioP2;P2;SDS_P1;SDS_P2;PMS_P1;PMS_P2;Temp;Humidity;BMP_temperature;BMP_pressure;BME280_temperature;BME280_humidity;BME280_pressure;Samples;Min_cycle;Max_cycle;Signal;HPM_P1;HPM_P2
2022/04/02 08:12:16;;;;;;;6.53;2.55;;;;;;;;;;5103629;28;20183;-75
2022/04/02 08:14:43;;;;;;;5.90;2.63;;;;;;;;;;5104098;28;20105;-77
2022/04/02 08:17:10;;;;;;;8.75;2.85;;;;;;;;;;5106354;27;20051;-76
2022/04/02 08:19:39;;;;;;;9.98;3.70;;;;;;;;;;5104937;28;20048;-77
2022/04/02 08:22:06;;;;;;;7.32;3.22;;;;;;;;;;5107847;28;20068;-76
2022/04/02 08:24:32;;;;;;;6.43;3.08;;;;;;;;;;5087467;28;20095;-77
2022/04/02 08:27:03;;;;;;;7.13;3.25;;;;;;;;;;5089666;28;20052;-77
2022/04/02 08:29:30;;;;;;;;;;;;;;;;;;5089548;28;20423;-77
2022/04/02 08:32:02;;;;;;;6.63;2.95;;;;;;;;;;5102350;28;45891;-76
2022/04/02 08:34:38;;;;;;;7.55;3.38;;;;;;;;;;5100389;28;20146;-76
2022/04/02 08:37:10;;;;;;;6.63;2.97;;;;;;;;;;5097267;28;20052;-77
2022/04/02 08:39:56;;;;;;;8.48;3.03;;;;;;;;;;5094685;28;20110;-75
2022/04/02 08:42:38;;;;;;;6.05;2.63;;;;;;;;;;5081257;28;20087;-78
2022/04/02 08:45:11;;;;;;;6.47;3.20;;;;;;;;;;5090275;28;20114;-77
2022/04/02 08:47:54;;;;;;;10.15;2.95;;;;;;;;;;5087352;28;20083;-77
2022/04/02 08:50:26;;;;;;;6.05;2.83;;;;;;;;;;5085063;28;20088;-78
2022/04/02 08:53:11;;;;;;;7.05;3.30;;;;;;;;;;5108361;27;20056;-75
2022/04/02 08:55:46;;;;;;;6.65;3.03;;;;;;;;;;5108785;28;20087;-76
2022/04/02 08:58:35;;;;;;;5.47;3.05;;;;;;;;;;5093505;28;20040;-77
2022/04/02 09:01:09;;;;;;;7.25;2.80;;;;;;;;;;5087377;28;20053;-77
2022/04/02 09:03:54;;;;;;;6.57;2.83;;;;;;;;;;5108319;28;20090;-77
2022/04/02 09:06:30;;;;;;;6.95;2.88;;;;;;;;;;5105186;28;20113;-75
2022/04/02 09:09:15;;;;;;;8.65;2.95;;;;;;;;;;5102343;28;20137;-74
2022/04/02 09:12:01;;;;;;;7.55;2.80;;;;;;;;;;5103882;27;20059;-78
2022/04/02 09:14:46;;;;;;;6.72;2.20;;;;;;;;;;5060811;28;20092;-77
2022/04/02 09:17:25;;;;;;;7.55;2.72;;;;;;;;;;5105470;28;20110;-77
2022/04/02 09:20:12;;;;;;;4.90;2.40;;;;;;;;;;5092893;28;20036;-78
2022/04/02 09:22:50;;;;;;;5.30;2.45;;;;;;;;;;5101640;28;20405;-77
2022/04/02 09:25:34;;;;;;;7.47;2.40;;;;;;;;;;5108978;28;20074;-78
2022/04/02 09:28:14;;;;;;;8.48;3.28;;;;;;;;;;5083201;28;20052;-77
2022/04/02 09:31:01;;;;;;;6.38;2.70;;;;;;;;;;5084818;28;20184;-78
2022/04/02 09:33:46;;;;;;;6.18;2.60;;;;;;;;;;5065420;28;20052;-77
2022/04/02 09:36:31;;;;;;;6.07;2.38;;;;;;;;;;5108750;28;20102;-77
2022/04/02 09:39:17;;;;;;;7.25;2.58;;;;;;;;;;5090622;28;20688;-78
2022/04/02 09:41:58;;;;;;;7.30;2.20;;;;;;;;;;5105951;27;21029;-76
2022/04/02 09:44:25;;;;;;;;;;;;;;;;;;5107777;28;20052;-77
2022/04/02 09:47:03;;;;;;;5.35;2.03;;;;;;;;;;5092069;28;46214;-79
2022/04/02 09:49:48;;;;;;;6.28;2.00;;;;;;;;;;5090094;28;20071;-78
2022/04/02 09:52:21;;;;;;;6.03;2.20;;;;;;;;;;5108943;27;20507;-78
2022/04/02 09:54:57;;;;;;;4.40;1.92;;;;;;;;;;5093295;28;20072;-79
2022/04/02 09:57:44;;;;;;;6.30;2.10;;;;;;;;;;5093553;28;20088;-79
2022/04/02 10:00:13;;;;;;;5.82;2.10;;;;;;;;;;5092175;28;20561;-79
2022/04/02 10:03:00;;;;;;;5.53;1.85;;;;;;;;;;5113478;28;20040;-79
2022/04/02 10:05:42;;;;;;;6.28;2.40;;;;;;;;;;5091304;28;20866;-79
2022/04/02 10:08:13;;;;;;;5.43;2.10;;;;;;;;;;5115392;28;20106;-78
2022/04/02 10:10:41;;;;;;;5.97;1.83;;;;;;;;;;5103338;28;20056;-78
2022/04/02 10:13:08;;;;;;;5.68;2.40;;;;;;;;;;5103440;28;20080;-78
2022/04/02 10:15:36;;;;;;;6.57;2.10;;;;;;;;;;5107986;28;20122;-79
2022/04/02 10:18:03;;;;;;;4.75;2.00;;;;;;;;;;5109900;28;20117;-79
2022/04/02 10:20:31;;;;;;;5.07;1.95;;;;;;;;;;5095430;28;20044;-77
2022/04/02 10:23:02;;;;;;;3.92;1.60;;;;;;;;;;5094308;28;20062;-78
2022/04/02 10:25:32;;;;;;;4.95;1.92;;;;;;;;;;5095215;28;20074;-78
2022/04/02 10:27:58;;;;;;;5.25;2.20;;;;;;;;;;5111470;28;20060;-78
2022/04/02 10:30:25;;;;;;;5.15;1.92;;;;;;;;;;5100726;28;20056;-78
2022/04/02 10:32:53;;;;;;;6.35;2.15;;;;;;;;;;5111182;28;20109;-79
2022/04/02 10:35:23;;;;;;;5.95;1.95;;;;;;;;;;5112665;28;20059;-78
2022/04/02 10:38:04;;;;;;;4.45;2.00;;;;;;;;;;5099945;28;20057;-79
2022/04/02 10:40:31;;;;;;;5.75;2.25;;;;;;;;;;5101830;28;20102;-79
2022/04/02 10:43:07;;;;;;;;;;;;;;;;;;5096335;28;20066;-78
2022/04/02 10:45:35;;;;;;;5.80;1.83;;;;;;;;;;5094472;28;45209;-78
2022/04/02 10:48:10;;;;;;;6.18;2.25;;;;;;;;;;5094453;28;20125;-78
2022/04/02 10:50:38;;;;;;;7.57;2.22;;;;;;;;;;5095653;28;20564;-79
2022/04/02 10:53:05;;;;;;;4.63;2.05;;;;;;;;;;5111789;28;20048;-79
2022/04/02 10:55:32;;;;;;;6.05;1.83;;;;;;;;;;5112721;28;20084;-78
2022/04/02 10:57:59;;;;;;;7.35;1.70;;;;;;;;;;5112612;27;20074;-78
2022/04/02 11:00:26;;;;;;;4.68;1.50;;;;;;;;;;5092705;28;20064;-80
2022/04/02 11:03:01;;;;;;;4.50;1.83;;;;;;;;;;5094313;28;20925;-78
2022/04/02 11:05:33;;;;;;;6.53;2.10;;;;;;;;;;5112949;28;20060;-78
2022/04/02 11:08:05;;;;;;;5.13;1.98;;;;;;;;;;5112091;28;20129;-79
2022/04/02 11:10:35;;;;;;;6.00;2.10;;;;;;;;;;5088371;27;20135;-78
2022/04/02 11:13:02;;;;;;;4.82;1.50;;;;;;;;;;5076779;28;20052;-78
2022/04/02 11:15:30;;;;;;;6.95;2.10;;;;;;;;;;5093431;28;20088;-77
2022/04/02 11:18:01;;;;;;;5.28;2.00;;;;;;;;;;5097345;28;20486;-79
2022/04/02 11:20:31;;;;;;;7.45;2.10;;;;;;;;;;5094663;28;20052;-79
2022/04/02 11:23:07;;;;;;;5.63;1.60;;;;;;;;;;5090800;28;20052;-79
2022/04/02 11:25:35;;;;;;;4.68;1.70;;;;;;;;;;5112482;28;20048;-79
2022/04/02 11:28:04;;;;;;;4.32;1.73;;;;;;;;;;5094660;28;20052;-79
2022/04/02 11:30:32;;;;;;;4.30;1.88;;;;;;;;;;5094666;28;20044;-79
2022/04/02 11:33:25;;;;;;;4.60;2.00;;;;;;;;;;5095464;28;20059;-79
2022/04/02 11:35:53;;;;;;;4.03;1.70;;;;;;;;;;5089173;28;20062;-79
2022/04/02 11:38:20;;;;;;;8.68;1.80;;;;;;;;;;5105787;28;20495;-79
2022/04/02 11:40:59;;;;;;;4.45;1.63;;;;;;;;;;5109237;28;20083;-78
2022/04/02 11:43:32;;;;;;;5.45;1.48;;;;;;;;;;5113353;28;20056;-79
2022/04/02 11:45:59;;;;;;;3.70;1.40;;;;;;;;;;5112475;28;20105;-79
2022/04/02 11:48:29;;;;;;;7.60;1.60;;;;;;;;;;5094559;28;20654;-75
2022/04/02 11:50:56;;;;;;;4.22;1.48;;;;;;;;;;5111617;28;20105;-78
2022/04/02 11:53:29;;;;;;;4.50;1.50;;;;;;;;;;5093970;28;20090;-78
2022/04/02 11:55:55;;;;;;;6.22;1.65;;;;;;;;;;5109200;28;20052;-78
2022/04/02 11:58:24;;;;;;;4.75;1.80;;;;;;;;;;5109760;28;20056;-78
2022/04/02 12:00:56;;;;;;;5.15;2.03;;;;;;;;;;5107798;28;20055;-78
2022/04/02 12:03:23;;;;;;;4.57;1.73;;;;;;;;;;5107547;28;20056;-77
2022/04/02 12:05:51;;;;;;;5.03;1.60;;;;;;;;;;5077969;28;20061;-78
2022/04/02 12:08:30;;;;;;;4.68;1.77;;;;;;;;;;5092770;28;20047;-78
2022/04/02 12:11:00;;;;;;;4.43;1.30;;;;;;;;;;5110727;28;20056;-77
2022/04/02 12:13:27;;;;;;;3.83;1.70;;;;;;;;;;5093356;28;20136;-78
2022/04/02 12:16:01;;;;;;;4.43;1.48;;;;;;;;;;5089441;28;20087;-79
2022/04/02 12:18:28;;;;;;;4.68;1.40;;;;;;;;;;5073914;28;20055;-76
2022/04/02 12:21:04;;;;;;;6.32;1.73;;;;;;;;;;5106044;28;21002;-79
2022/04/02 12:23:31;;;;;;;4.65;1.58;;;;;;;;;;5093438;28;20048;-77
2022/04/02 12:25:58;;;;;;;6.43;1.60;;;;;;;;;;5111734;28;20052;-78
2022/04/02 12:28:25;;;;;;;4.40;1.60;;;;;;;;;;5111394;28;20076;-78
2022/04/02 12:30:52;;;;;;;4.57;1.58;;;;;;;;;;5088590;27;20056;-78
2022/04/02 12:33:22;;;;;;;4.07;1.40;;;;;;;;;;5111049;28;20095;-77
2022/04/02 12:35:59;;;;;;;4.33;1.70;;;;;;;;;;5111445;28;20060;-78
2022/04/02 12:38:27;;;;;;;5.45;1.98;;;;;;;;;;5093514;28;20325;-78
2022/04/02 12:40:56;;;;;;;4.30;1.45;;;;;;;;;;5091553;28;20741;-77
2022/04/02 12:43:24;;;;;;;3.25;1.20;;;;;;;;;;5111564;28;20052;-79
2022/04/02 12:45:50;;;;;;;2.83;1.30;;;;;;;;;;5090784;28;20052;-78
2022/04/02 12:48:20;;;;;;;4.93;1.50;;;;;;;;;;5093635;28;20482;-78
2022/04/02 12:51:00;;;;;;;5.00;1.70;;;;;;;;;;5092228;28;20135;-77
2022/04/02 12:53:27;;;;;;;4.50;1.50;;;;;;;;;;5111535;28;20052;-79
2022/04/02 12:55:53;;;;;;;4.35;1.40;;;;;;;;;;5093192;28;20110;-79
2022/04/02 12:58:29;;;;;;;6.07;1.42;;;;;;;;;;5111221;28;20547;-79
2022/04/02 13:01:06;;;;;;;7.22;2.00;;;;;;;;;;5092839;28;20158;-78
2022/04/02 13:03:36;;;;;;;6.72;1.58;;;;;;;;;;5118070;27;20614;-78
2022/04/02 13:06:03;;;;;;;7.90;1.57;;;;;;;;;;5108903;28;20056;-78
2022/04/02 13:08:29;;;;;;;3.78;1.50;;;;;;;;;;5093886;28;20125;-78
2022/04/02 13:10:57;;;;;;;4.03;1.80;;;;;;;;;;5109768;28;20059;-78
2022/04/02 13:13:43;;;;;;;4.80;1.80;;;;;;;;;;5092260;28;20572;-78
2022/04/02 13:16:10;;;;;;;7.82;1.90;;;;;;;;;;5089799;28;20056;-76
2022/04/02 13:21:31;;;;;;;6.47;2.50;;;;;;;;;;5107228;28;20101;-78
2022/04/02 13:24:13;;;;;;;4.60;1.60;;;;;;;;;;5108652;28;20095;-78
2022/04/02 13:26:48;;;;;;;4.03;1.60;;;;;;;;;;5108446;28;20103;-78
2022/04/02 13:29:34;;;;;;;4.00;1.73;;;;;;;;;;5092562;28;20052;-78
2022/04/02 13:32:12;;;;;;;4.20;1.77;;;;;;;;;;5084328;28;20048;-78
2022/04/02 13:34:43;;;;;;;6.35;1.75;;;;;;;;;;5111475;27;20483;-77
2022/04/02 13:37:22;;;;;;;3.85;1.45;;;;;;;;;;5112907;28;20059;-78
2022/04/02 13:39:59;;;;;;;5.32;1.90;;;;;;;;;;5095730;28;20087;-78
2022/04/02 13:42:27;;;;;;;3.40;1.50;;;;;;;;;;5089882;28;20105;-78
2022/04/02 13:44:57;;;;;;;3.97;1.67;;;;;;;;;;5089240;28;20400;-78
2022/04/02 13:47:25;;;;;;;3.77;1.40;;;;;;;;;;5107742;27;20503;-78
2022/04/02 13:50:04;;;;;;;5.78;2.00;;;;;;;;;;5086438;28;20143;-78
2022/04/02 13:52:35;;;;;;;5.23;1.80;;;;;;;;;;5095554;28;20669;-76
2022/04/02 13:55:01;;;;;;;;;;;;;;;;;;5094137;28;20087;-78
2022/04/02 13:57:32;;;;;;;4.85;1.63;;;;;;;;;;5093096;28;48030;-78
2022/04/02 13:59:59;;;;;;;;;;;;;;;;;;5095158;28;20511;-76
2022/04/02 14:02:26;;;;;;;4.07;1.60;;;;;;;;;;5094378;28;46628;-77
2022/04/02 14:05:02;;;;;;;4.65;1.60;;;;;;;;;;5112272;27;20105;-78
2022/04/02 14:07:34;;;;;;;5.68;1.55;;;;;;;;;;5094267;28;20091;-76
2022/04/02 14:10:08;;;;;;;3.72;1.40;;;;;;;;;;5093668;28;20056;-78
2022/04/02 14:12:37;;;;;;;5.70;1.85;;;;;;;;;;5112435;28;20055;-77
2022/04/02 14:15:07;;;;;;;5.88;1.40;;;;;;;;;;5112960;28;20075;-78
2022/04/02 14:17:38;;;;;;;4.80;1.42;;;;;;;;;;5113824;28;20059;-78
2022/04/02 14:20:06;;;;;;;5.30;1.60;;;;;;;;;;5095139;28;20052;-77
2022/04/02 14:22:38;;;;;;;4.25;1.40;;;;;;;;;;5110666;28;20056;-78
2022/04/02 14:25:28;;;;;;;5.75;1.73;;;;;;;;;;5094078;28;20040;-78
2022/04/02 14:28:03;;;;;;;3.80;1.60;;;;;;;;;;5091769;28;20076;-78
2022/04/02 14:30:48;;;;;;;4.22;1.67;;;;;;;;;;5094373;28;20511;-77
2022/04/02 14:33:46;;;;;;;6.18;1.63;;;;;;;;;;5098729;28;20580;-77
2022/04/02 14:36:13;;;;;;;7.90;1.80;;;;;;;;;;5090158;28;20052;-76
2022/04/02 14:38:59;;;;;;;4.80;1.50;;;;;;;;;;5094612;28;20569;-78
2022/04/02 14:41:46;;;;;;;4.70;1.20;;;;;;;;;;5084274;28;20060;-77
2022/04/02 14:44:31;;;;;;;5.05;1.13;;;;;;;;;;5093882;28;20055;-78
2022/04/02 14:47:10;;;;;;;3.67;1.20;;;;;;;;;;5094410;28;20075;-77
2022/04/02 14:49:43;;;;;;;5.30;1.30;;;;;;;;;;5094486;28;20106;-77
2022/04/02 14:52:27;;;;;;;5.32;1.30;;;;;;;;;;5094625;28;20052;-78
2022/04/02 14:55:15;;;;;;;5.05;1.40;;;;;;;;;;5093199;27;20078;-77
2022/04/02 14:58:00;;;;;;;3.85;1.38;;;;;;;;;;5057062;28;20122;-79
2022/04/02 15:00:45;;;;;;;7.38;1.63;;;;;;;;;;5112102;28;20090;-78
2022/04/02 15:03:30;;;;;;;4.00;1.70;;;;;;;;;;5107267;28;20099;-79
2022/04/02 15:06:10;;;;;;;7.65;2.00;;;;;;;;;;5095013;28;20060;-78
2022/04/02 15:08:56;;;;;;;7.57;1.90;;;;;;;;;;5113153;28;20090;-79
2022/04/02 15:11:24;;;;;;;4.95;1.77;;;;;;;;;;5095035;28;20453;-78
2022/04/02 15:13:56;;;;;;;5.28;1.75;;;;;;;;;;5110400;28;20055;-79
2022/04/02 15:16:29;;;;;;;5.68;2.00;;;;;;;;;;5094408;28;20055;-79
2022/04/02 15:19:11;;;;;;;6.45;1.83;;;;;;;;;;5096055;28;20060;-78
2022/04/02 15:21:37;;;;;;;;;;;;;;;;;;5112977;28;20090;-78
2022/04/02 15:24:03;;;;;;;5.22;1.70;;;;;;;;;;5109784;27;47102;-78
2022/04/02 15:26:30;;;;;;;4.40;1.80;;;;;;;;;;5111163;27;20139;-78
2022/04/02 15:29:02;;;;;;;5.85;1.77;;;;;;;;;;5095543;28;20052;-79
2022/04/02 15:31:48;;;;;;;5.32;1.92;;;;;;;;;;5104679;28;20066;-79
2022/04/02 15:34:15;;;;;;;6.68;1.83;;;;;;;;;;5112309;28;20083;-79
2022/04/02 15:37:20;;;;;;;5.28;1.83;;;;;;;;;;5077502;28;20871;-79
2022/04/02 15:39:46;;;;;;;5.25;1.80;;;;;;;;;;5013521;28;20100;-79
2022/04/02 15:42:20;;;;;;;4.38;1.50;;;;;;;;;;5029864;28;20054;-78
2022/04/02 15:44:47;;;;;;;5.63;1.67;;;;;;;;;;5073354;28;20145;-78
2022/04/02 15:47:32;;;;;;;7.60;1.70;;;;;;;;;;5108952;28;20573;-79
2022/04/02 15:50:11;;;;;;;4.60;1.80;;;;;;;;;;5091650;28;20084;-78
2022/04/02 15:52:38;;;;;;;5.55;2.00;;;;;;;;;;5109127;28;20512;-78
2022/04/02 15:55:14;;;;;;;5.15;1.70;;;;;;;;;;5111920;28;20063;-79
2022/04/02 15:58:01;;;;;;;4.10;1.50;;;;;;;;;;5111917;27;20056;-78
2022/04/02 16:00:27;;;;;;;5.10;1.35;;;;;;;;;;5093847;28;20052;-78
2022/04/02 16:02:54;;;;;;;6.07;1.90;;;;;;;;;;5103567;28;20056;-79
2022/04/02 16:05:22;;;;;;;5.20;2.03;;;;;;;;;;5112138;28;20426;-79
2022/04/02 16:08:18;;;;;;;5.63;2.00;;;;;;;;;;5094460;28;20084;-78
2022/04/02 16:11:06;;;;;;;5.63;1.98;;;;;;;;;;5095228;28;20109;-79
2022/04/02 16:13:32;;;;;;;6.78;1.95;;;;;;;;;;5110539;28;20052;-79
2022/04/02 16:15:59;;;;;;;6.60;1.83;;;;;;;;;;5094762;28;20055;-78
2022/04/02 16:18:28;;;;;;;5.25;1.88;;;;;;;;;;5113546;28;20056;-79
2022/04/02 16:20:54;;;;;;;5.55;1.75;;;;;;;;;;5111681;28;20126;-78
2022/04/02 16:23:31;;;;;;;7.40;2.30;;;;;;;;;;5093241;28;20048;-79
2022/04/02 16:25:58;;;;;;;4.68;1.60;;;;;;;;;;5092528;28;20063;-79
2022/04/02 16:28:35;;;;;;;6.15;1.90;;;;;;;;;;5104281;28;20095;-79
2022/04/02 16:31:03;;;;;;;4.95;1.50;;;;;;;;;;5093373;28;20074;-79
2022/04/02 16:33:30;;;;;;;6.13;1.60;;;;;;;;;;5093633;28;20075;-78
2022/04/02 16:35:58;;;;;;;5.57;1.90;;;;;;;;;;5112657;28;20052;-79
2022/04/02 16:38:25;;;;;;;5.10;1.38;;;;;;;;;;5110874;28;21165;-79
2022/04/02 16:40:51;;;;;;;4.68;1.50;;;;;;;;;;5094458;28;20113;-79
2022/04/02 16:43:17;;;;;;;5.53;2.10;;;;;;;;;;5080662;28;20052;-79
2022/04/02 16:46:00;;;;;;;5.00;1.90;;;;;;;;;;5096110;28;20774;-81
2022/04/02 16:48:31;;;;;;;6.47;2.20;;;;;;;;;;5093914;28;21021;-78
2022/04/02 16:51:05;;;;;;;6.38;2.25;;;;;;;;;;5114262;28;20056;-79
2022/04/02 16:53:31;;;;;;;5.10;1.90;;;;;;;;;;5113525;28;20125;-79
2022/04/02 16:55:57;;;;;;;6.60;1.85;;;;;;;;;;5092301;28;20763;-78
2022/04/02 16:58:24;;;;;;;4.70;1.80;;;;;;;;;;5111830;28;20106;-79
2022/04/02 17:00:51;;;;;;;6.57;2.00;;;;;;;;;;5091865;27;20056;-79
2022/04/02 17:03:21;;;;;;;4.22;1.42;;;;;;;;;;5112883;28;20052;-79
2022/04/02 17:05:50;;;;;;;4.77;1.70;;;;;;;;;;5112717;28;20076;-78
2022/04/02 17:08:17;;;;;;;12.45;4.10;;;;;;;;;;5082420;28;20271;-78
2022/04/02 17:10:48;;;;;;;6.50;2.58;;;;;;;;;;5076505;28;20049;-79
2022/04/02 17:13:23;;;;;;;7.80;2.45;;;;;;;;;;5092812;28;20110;-78
2022/04/02 17:15:53;;;;;;;5.53;2.30;;;;;;;;;;5088807;28;20048;-78
2022/04/02 17:18:20;;;;;;;9.15;2.88;;;;;;;;;;5096372;28;20822;-78
2022/04/02 17:20:47;;;;;;;11.38;2.97;;;;;;;;;;5114811;28;20060;-78
2022/04/02 17:23:31;;;;;;;8.20;2.70;;;;;;;;;;5094243;28;20829;-78
2022/04/02 17:25:58;;;;;;;5.72;2.90;;;;;;;;;;5096680;28;20465;-78
2022/04/02 17:28:26;;;;;;;9.82;3.20;;;;;;;;;;5097170;28;21022;-79
2022/04/02 17:30:52;;;;;;;5.05;1.63;;;;;;;;;;5090244;28;20126;-79
2022/04/02 17:33:22;;;;;;;4.50;1.70;;;;;;;;;;5087837;28;20063;-78
2022/04/02 17:35:51;;;;;;;6.10;2.13;;;;;;;;;;5116022;27;20048;-78
2022/04/02 17:38:18;;;;;;;5.55;2.15;;;;;;;;;;5111024;28;20083;-77
2022/04/02 17:40:50;;;;;;;7.43;2.33;;;;;;;;;;5115659;28;20584;-78
2022/04/02 17:43:17;;;;;;;6.25;2.45;;;;;;;;;;5098652;28;20085;-79
2022/04/02 17:45:46;;;;;;;5.38;2.08;;;;;;;;;;5098461;28;20059;-78
2022/04/02 17:48:15;;;;;;;5.20;1.50;;;;;;;;;;5095111;28;20056;-78
2022/04/02 17:50:42;;;;;;;9.23;1.60;;;;;;;;;;5115561;28;20055;-78
2022/04/02 17:53:14;;;;;;;3.70;1.60;;;;;;;;;;5096618;28;20603;-79
2022/04/02 17:55:41;;;;;;;3.65;1.60;;;;;;;;;;5095572;28;20256;-79
2022/04/02 17:58:18;;;;;;;5.47;1.60;;;;;;;;;;5114366;28;20063;-79
2022/04/02 18:00:52;;;;;;;4.00;1.50;;;;;;;;;;5115777;28;20048;-79
2022/04/02 18:03:34;;;;;;;5.15;1.65;;;;;;;;;;5110158;28;20052;-77
2022/04/02 18:06:00;;;;;;;6.50;1.60;;;;;;;;;;5105224;28;20056;-78
2022/04/02 18:08:27;;;;;;;5.32;1.60;;;;;;;;;;5123304;28;20044;-78
2022/04/02 18:10:53;;;;;;;5.13;1.45;;;;;;;;;;5101006;28;20110;-79
2022/04/02 18:13:20;;;;;;;6.20;2.03;;;;;;;;;;5105774;28;20523;-78
2022/04/02 18:15:46;;;;;;;5.00;1.38;;;;;;;;;;5104655;28;20051;-77
2022/04/02 18:18:13;;;;;;;4.75;1.83;;;;;;;;;;5124815;28;20058;-77
2022/04/02 18:20:42;;;;;;;5.28;1.75;;;;;;;;;;5089743;28;20041;-78
2022/04/02 18:23:08;;;;;;;4.30;1.80;;;;;;;;;;5107017;28;20052;-77
2022/04/02 18:25:35;;;;;;;6.15;2.55;;;;;;;;;;5106544;28;20044;-78
2022/04/02 18:28:01;;;;;;;6.75;2.78;;;;;;;;;;5106376;28;20071;-78
2022/04/02 18:30:27;;;;;;;6.72;2.38;;;;;;;;;;5104580;28;20141;-79
2022/04/02 18:32:54;;;;;;;6.38;2.67;;;;;;;;;;5106795;28;20044;-78
2022/04/02 18:35:20;;;;;;;6.63;2.67;;;;;;;;;;5119451;28;20075;-80
2022/04/02 18:37:47;;;;;;;7.07;2.33;;;;;;;;;;5121370;28;20064;-79
2022/04/02 18:40:13;;;;;;;5.88;2.13;;;;;;;;;;5103636;28;20064;-78
2022/04/02 18:42:40;;;;;;;5.78;2.45;;;;;;;;;;5120253;28;20067;-78
2022/04/02 18:45:06;;;;;;;6.75;2.42;;;;;;;;;;5104126;28;20056;-79
2022/04/02 18:47:33;;;;;;;8.73;2.10;;;;;;;;;;5103558;28;20137;-79
2022/04/02 18:49:59;;;;;;;7.80;2.38;;;;;;;;;;5100058;28;20052;-78
2022/04/02 18:52:26;;;;;;;8.23;3.05;;;;;;;;;;5103699;28;20385;-79
2022/04/02 18:54:52;;;;;;;11.43;3.53;;;;;;;;;;5108028;28;20048;-79
2022/04/02 18:57:22;;;;;;;9.43;3.40;;;;;;;;;;5114178;28;20086;-79
2022/04/02 18:59:49;;;;;;;9.45;3.80;;;;;;;;;;5096682;28;20059;-79
2022/04/02 19:02:19;;;;;;;12.13;4.70;;;;;;;;;;5092899;28;20052;-79
2022/04/02 19:04:51;;;;;;;15.30;5.05;;;;;;;;;;5116310;28;20052;-78
2022/04/02 19:07:22;;;;;;;13.05;4.50;;;;;;;;;;5096784;28;20552;-79
2022/04/02 19:10:19;;;;;;;11.65;4.50;;;;;;;;;;5112746;28;20106;-79
2022/04/02 19:12:51;;;;;;;9.93;3.78;;;;;;;;;;5112003;28;20143;-79
2022/04/02 19:15:20;;;;;;;11.25;4.57;;;;;;;;;;5092675;28;20836;-79
2022/04/02 19:17:50;;;;;;;11.25;4.43;;;;;;;;;;5099688;28;20117;-80
2022/04/02 19:20:21;;;;;;;9.07;3.75;;;;;;;;;;5085332;28;20052;-80
2022/04/02 19:22:50;;;;;;;9.40;4.47;;;;;;;;;;5090370;28;20082;-79
2022/04/02 19:25:26;;;;;;;7.93;4.00;;;;;;;;;;5111875;27;20044;-80
2022/04/02 19:27:54;;;;;;;10.63;4.25;;;;;;;;;;5096009;28;20052;-80
2022/04/02 19:30:22;;;;;;;10.57;4.18;;;;;;;;;;5092168;28;20052;-79
2022/04/02 19:32:53;;;;;;;8.60;3.90;;;;;;;;;;5095421;28;20032;-79
2022/04/02 19:35:22;;;;;;;7.20;3.25;;;;;;;;;;5093781;28;20055;-80
2022/04/02 19:37:59;;;;;;;7.28;3.38;;;;;;;;;;5113007;28;20056;-79
2022/04/02 19:40:29;;;;;;;7.28;3.33;;;;;;;;;;5076020;28;20044;-79
2022/04/02 19:43:02;;;;;;;9.35;4.20;;;;;;;;;;5108996;28;20528;-80
2022/04/02 19:45:33;;;;;;;10.40;3.97;;;;;;;;;;5108641;28;20052;-80
2022/04/02 19:48:04;;;;;;;10.95;4.30;;;;;;;;;;5079799;28;20179;-80
2022/04/02 19:50:34;;;;;;;9.77;3.70;;;;;;;;;;5075247;28;20083;-80
2022/04/02 19:53:04;;;;;;;8.07;3.22;;;;;;;;;;5094128;28;20998;-80
2022/04/02 19:55:32;;;;;;;9.55;3.00;;;;;;;;;;5098513;28;20078;-80
2022/04/02 19:58:26;;;;;;;7.82;3.00;;;;;;;;;;5098267;28;20048;-80
2022/04/02 20:00:54;;;;;;;8.55;3.05;;;;;;;;;;5099089;28;20047;-80
2022/04/02 20:03:23;;;;;;;8.95;3.35;;;;;;;;;;5119232;28;20052;-79
2022/04/02 20:05:51;;;;;;;8.52;3.20;;;;;;;;;;5098136;28;20132;-80
2022/04/02 20:08:21;;;;;;;6.10;2.90;;;;;;;;;;5116668;28;20076;-79
2022/04/02 20:10:50;;;;;;;6.72;2.97;;;;;;;;;;5095564;28;20109;-80
2022/04/02 20:13:19;;;;;;;9.70;2.90;;;;;;;;;;5094403;28;20056;-80
2022/04/02 20:15:46;;;;;;;10.98;3.58;;;;;;;;;;5109878;28;20048;-80
2022/04/02 20:18:18;;;;;;;11.35;3.53;;;;;;;;;;5094458;28;20106;-80
2022/04/02 20:20:47;;;;;;;15.15;4.05;;;;;;;;;;5093924;28;20052;-80
2022/04/02 20:23:14;;;;;;;7.72;3.38;;;;;;;;;;5080447;28;20111;-80
2022/04/02 20:25:43;;;;;;;7.50;2.83;;;;;;;;;;5088210;28;20091;-80
2022/04/02 20:28:10;;;;;;;7.22;2.70;;;;;;;;;;5091818;28;20091;-81
2022/04/02 20:30:38;;;;;;;6.88;2.70;;;;;;;;;;5091287;28;20060;-80
2022/04/02 20:33:05;;;;;;;7.45;3.28;;;;;;;;;;5095778;28;20090;-80
2022/04/02 20:35:32;;;;;;;6.57;2.83;;;;;;;;;;5095891;28;20055;-81
2022/04/02 20:37:58;;;;;;;9.48;2.72;;;;;;;;;;5112405;28;20052;-81
2022/04/02 20:40:24;;;;;;;7.93;2.70;;;;;;;;;;5111132;28;20052;-81
2022/04/02 20:42:51;;;;;;;7.82;3.15;;;;;;;;;;5094395;28;20060;-81
2022/04/02 20:45:17;;;;;;;8.95;2.83;;;;;;;;;;5094669;28;20052;-81
2022/04/02 20:47:43;;;;;;;8.05;2.95;;;;;;;;;;5094789;28;20829;-81
2022/04/02 20:50:10;;;;;;;7.75;3.20;;;;;;;;;;5095992;28;20952;-81
2022/04/02 20:52:37;;;;;;;8.80;3.40;;;;;;;;;;5095521;28;20056;-81
2022/04/02 20:55:03;;;;;;;11.68;3.63;;;;;;;;;;5113564;28;20051;-81
2022/04/02 20:57:29;;;;;;;8.18;3.53;;;;;;;;;;5114306;28;20499;-80
2022/04/02 20:59:56;;;;;;;9.38;3.95;;;;;;;;;;5094765;28;20082;-81
2022/04/02 21:02:22;;;;;;;9.68;3.75;;;;;;;;;;5094525;28;20048;-81
2022/04/02 21:04:49;;;;;;;8.90;3.08;;;;;;;;;;5113534;28;20217;-81
2022/04/02 21:07:15;;;;;;;9.88;3.13;;;;;;;;;;5093881;28;20056;-81
2022/04/02 21:09:41;;;;;;;10.27;3.00;;;;;;;;;;5094216;28;20945;-81
2022/04/02 21:12:08;;;;;;;9.50;3.05;;;;;;;;;;5095219;28;20106;-81
2022/04/02 21:14:35;;;;;;;7.88;2.90;;;;;;;;;;5092976;28;20052;-80
2022/04/02 21:17:01;;;;;;;9.77;3.17;;;;;;;;;;5095022;28;20052;-81
2022/04/02 21:19:28;;;;;;;9.85;2.80;;;;;;;;;;5111738;28;20534;-80
2022/04/02 21:21:54;;;;;;;7.43;2.83;;;;;;;;;;5086059;28;20040;-80
2022/04/02 21:24:20;;;;;;;7.57;2.80;;;;;;;;;;5091073;28;20084;-80
2022/04/02 21:26:47;;;;;;;8.48;2.72;;;;;;;;;;5092909;28;20110;-81
2022/04/02 21:29:13;;;;;;;6.55;2.50;;;;;;;;;;5112356;28;20052;-80
2022/04/02 21:31:40;;;;;;;6.22;2.85;;;;;;;;;;5084235;28;20053;-80
2022/04/02 21:34:06;;;;;;;8.45;2.90;;;;;;;;;;5091832;28;20512;-80
2022/04/02 21:36:33;;;;;;;8.07;3.08;;;;;;;;;;5107428;28;20110;-81
2022/04/02 21:38:59;;;;;;;7.15;3.20;;;;;;;;;;5079511;28;20049;-80
2022/04/02 21:41:25;;;;;;;10.38;3.75;;;;;;;;;;5078795;28;20082;-80
2022/04/02 21:43:52;;;;;;;9.90;4.25;;;;;;;;;;5111952;28;20083;-80
2022/04/02 21:46:19;;;;;;;8.73;3.65;;;;;;;;;;5110078;28;20094;-80
2022/04/02 21:48:45;;;;;;;9.77;4.20;;;;;;;;;;5093425;28;20059;-81
2022/04/02 21:51:11;;;;;;;8.18;4.32;;;;;;;;;;5110215;28;20629;-80
2022/04/02 21:53:38;;;;;;;9.35;4.03;;;;;;;;;;5093818;28;20060;-80
2022/04/02 21:56:06;;;;;;;10.80;4.15;;;;;;;;;;5094240;28;20109;-80
2022/04/02 21:58:52;;;;;;;9.77;4.03;;;;;;;;;;5115357;28;20143;-81
2022/04/02 22:01:27;;;;;;;8.80;4.03;;;;;;;;;;5097605;28;20048;-80
2022/04/02 22:03:54;;;;;;;9.10;3.70;;;;;;;;;;5097830;28;20052;-80
2022/04/02 22:06:21;;;;;;;10.77;3.97;;;;;;;;;;5114346;28;20041;-80
2022/04/02 22:08:47;;;;;;;9.38;4.85;;;;;;;;;;5116338;28;20044;-80
2022/04/02 22:11:13;;;;;;;14.43;6.03;;;;;;;;;;5095619;28;20052;-80
2022/04/02 22:13:40;;;;;;;18.02;7.00;;;;;;;;;;5096485;28;20581;-80
2022/04/02 22:16:06;;;;;;;17.10;7.53;;;;;;;;;;5115487;28;20110;-80
2022/04/02 22:18:34;;;;;;;19.63;8.25;;;;;;;;;;5097800;28;20048;-80
2022/04/02 22:21:01;;;;;;;16.50;6.78;;;;;;;;;;5113040;28;20044;-79
2022/04/02 22:23:27;;;;;;;13.75;6.78;;;;;;;;;;5092266;28;20909;-80
2022/04/02 22:25:53;;;;;;;14.02;6.50;;;;;;;;;;5095194;28;20040;-79
2022/04/02 22:28:20;;;;;;;11.73;5.38;;;;;;;;;;5114796;28;20845;-80
2022/04/02 22:30:46;;;;;;;14.10;5.53;;;;;;;;;;5097226;28;20083;-80
2022/04/02 22:33:13;;;;;;;12.85;5.20;;;;;;;;;;5095678;28;20114;-80
2022/04/02 22:35:40;;;;;;;9.77;4.65;;;;;;;;;;5096403;28;20090;-79
2022/04/02 22:38:10;;;;;;;9.68;5.05;;;;;;;;;;5105813;28;20083;-80
2022/04/02 22:40:37;;;;;;;9.70;4.30;;;;;;;;;;5075630;28;20178;-79
2022/04/02 22:43:04;;;;;;;13.88;4.53;;;;;;;;;;5093842;28;20522;-79
2022/04/02 22:45:30;;;;;;;9.93;3.72;;;;;;;;;;5114040;28;20868;-80
2022/04/02 22:47:57;;;;;;;14.43;3.90;;;;;;;;;;5114414;28;20075;-80
2022/04/02 22:50:23;;;;;;;9.25;3.03;;;;;;;;;;5078439;28;20519;-80
2022/04/02 22:52:50;;;;;;;9.75;3.30;;;;;;;;;;5092472;28;20048;-80
2022/04/02 22:55:16;;;;;;;8.38;3.78;;;;;;;;;;5095974;28;20113;-80
2022/04/02 22:57:43;;;;;;;8.40;3.53;;;;;;;;;;5112833;28;20055;-80
2022/04/02 23:00:11;;;;;;;11.55;4.63;;;;;;;;;;5103239;28;20059;-80
2022/04/02 23:02:38;;;;;;;9.70;4.25;;;;;;;;;;5093406;28;20040;-80
2022/04/02 23:05:08;;;;;;;10.40;4.30;;;;;;;;;;5096195;28;20878;-80
2022/04/02 23:07:35;;;;;;;9.55;4.45;;;;;;;;;;5113778;27;20052;-80
2022/04/02 23:10:02;;;;;;;11.10;4.10;;;;;;;;;;5112714;28;20817;-79
2022/04/02 23:12:28;;;;;;;8.95;4.30;;;;;;;;;;5112193;28;20052;-80
2022/04/02 23:14:54;;;;;;;9.25;3.65;;;;;;;;;;5113636;28;20572;-80
2022/04/02 23:17:22;;;;;;;10.50;4.22;;;;;;;;;;5095173;28;20052;-80
2022/04/02 23:19:48;;;;;;;7.57;3.85;;;;;;;;;;5095057;28;20052;-80
2022/04/02 23:22:15;;;;;;;9.70;4.03;;;;;;;;;;5113905;28;20048;-80